createdAt,value
2023-05-11T00:01:10.365Z,11.65
2023-05-11T00:03:39.741Z,11.67
2023-05-11T00:06:09.155Z,11.61
2023-05-11T00:08:38.573Z,11.57
2023-05-11T00:11:11.394Z,11.53
2023-05-11T00:13:40.873Z,11.52
2023-05-11T00:16:10.219Z,11.47
2023-05-11T00:18:39.732Z,11.46
2023-05-11T00:21:09.308Z,11.49
2023-05-11T00:23:38.624Z,11.47
2023-05-11T00:26:08.021Z,11.42
2023-05-11T00:28:38.330Z,11.41
2023-05-11T00:31:08.022Z,11.43
2023-05-11T00:33:37.413Z,11.45
2023-05-11T00:36:08.096Z,11.45
2023-05-11T00:38:39.351Z,11.43
2023-05-11T00:41:09.525Z,11.39
2023-05-11T00:43:38.874Z,11.43
2023-05-11T00:46:08.475Z,11.39
2023-05-11T00:48:38.133Z,11.37
2023-05-11T00:51:07.826Z,11.36
2023-05-11T00:53:37.288Z,11.35
2023-05-11T00:56:06.725Z,11.34
2023-05-11T00:58:36.775Z,11.31
2023-05-11T01:01:06.315Z,11.25
2023-05-11T01:03:36.441Z,11.28
2023-05-11T01:06:31.885Z,11.23
2023-05-11T01:09:10.176Z,11.24
2023-05-11T01:11:42.669Z,11.23
2023-05-11T01:14:13.145Z,11.22
2023-05-11T01:16:47.425Z,11.24
2023-05-11T01:19:42.683Z,11.12
2023-05-11T01:22:30.854Z,11.08
2023-05-11T01:25:21.359Z,11.05
2023-05-11T01:28:07.603Z,11.07
2023-05-11T01:30:56.469Z,11.04
2023-05-11T01:33:32.710Z,11.02
2023-05-11T01:36:07.519Z,11.01
2023-05-11T01:38:41.631Z,11.01
2023-05-11T01:41:17.586Z,11.00
2023-05-11T01:43:50.780Z,11.04
2023-05-11T01:46:22.579Z,11.06
2023-05-11T01:48:55.622Z,11.03
2023-05-11T01:51:25.903Z,11.04
2023-05-11T01:53:55.945Z,11.04
2023-05-11T01:56:26.194Z,11.00
2023-05-11T01:58:57.133Z,11.03
2023-05-11T02:01:27.074Z,10.99
2023-05-11T02:03:56.830Z,10.94
2023-05-11T02:06:26.774Z,10.94
2023-05-11T02:08:56.364Z,10.91
2023-05-11T02:11:27.344Z,10.92
2023-05-11T02:13:59.207Z,10.90
2023-05-11T02:16:30.688Z,10.90
2023-05-11T02:19:01.360Z,10.88
2023-05-11T02:21:32.181Z,10.86
2023-05-11T02:24:03.423Z,10.85
2023-05-11T02:26:33.244Z,10.81
2023-05-11T02:29:03.230Z,10.80
2023-05-11T02:31:35.984Z,10.82
2023-05-11T02:34:19.073Z,10.80
2023-05-11T02:36:55.255Z,10.81
2023-05-11T02:39:27.699Z,10.82
2023-05-11T02:41:59.230Z,10.78
2023-05-11T02:44:31.909Z,10.76
2023-05-11T02:47:01.738Z,10.80
2023-05-11T02:49:33.657Z,10.83
2023-05-11T02:52:04.687Z,10.82
2023-05-11T02:54:35.469Z,10.81
2023-05-11T02:57:05.334Z,10.82
2023-05-11T02:59:35.305Z,10.78
2023-05-11T03:02:05.254Z,10.78
2023-05-11T03:04:35.323Z,10.79
2023-05-11T03:07:04.924Z,10.81
2023-05-11T03:09:34.744Z,10.85
2023-05-11T03:12:05.663Z,10.80
2023-05-11T03:14:36.489Z,10.81
2023-05-11T03:17:05.970Z,10.80
2023-05-11T03:19:36.193Z,10.80
2023-05-11T03:22:07.774Z,10.78
2023-05-11T03:24:37.245Z,10.76
2023-05-11T03:27:07.712Z,10.75
2023-05-11T03:29:39.687Z,10.75
2023-05-11T03:32:09.863Z,10.76
2023-05-11T03:34:39.685Z,10.73
2023-05-11T03:37:13.224Z,10.70
2023-05-11T03:39:44.811Z,10.64
2023-05-11T03:42:16.726Z,10.62
2023-05-11T03:44:47.762Z,10.63
2023-05-11T03:47:17.520Z,10.66
2023-05-11T03:49:47.218Z,10.69
2023-05-11T03:52:16.754Z,10.73
2023-05-11T03:54:46.763Z,10.73
2023-05-11T03:57:17.546Z,10.74
2023-05-11T03:59:47.779Z,10.75
2023-05-11T04:02:17.430Z,10.77
2023-05-11T04:04:47.074Z,10.74
2023-05-11T04:07:16.791Z,10.79
2023-05-11T04:09:46.549Z,10.78
2023-05-11T04:12:15.964Z,10.81
2023-05-11T04:14:45.222Z,10.85
2023-05-11T04:17:14.759Z,10.90
2023-05-11T04:19:45.739Z,10.94
2023-05-11T04:22:15.115Z,10.95
2023-05-11T04:24:44.403Z,10.95
2023-05-11T04:27:13.727Z,10.95
2023-05-11T04:29:43.188Z,10.96
2023-05-11T04:32:12.528Z,11.02
2023-05-11T04:34:42.267Z,11.06
2023-05-11T04:37:12.316Z,11.07
2023-05-11T04:39:42.922Z,11.09
2023-05-11T04:42:13.298Z,11.10
2023-05-11T04:44:43.086Z,11.15
2023-05-11T04:47:13.659Z,11.13
2023-05-11T04:49:44.292Z,11.12
2023-05-11T04:52:13.699Z,11.06
2023-05-11T04:54:44.811Z,11.01
2023-05-11T04:57:14.159Z,11.01
2023-05-11T04:59:43.793Z,11.08
2023-05-11T05:02:13.217Z,11.09
2023-05-11T05:04:42.515Z,11.08
2023-05-11T05:07:12.729Z,11.08
2023-05-11T05:09:45.105Z,11.04
2023-05-11T05:12:13.870Z,11.07
2023-05-11T05:14:45.395Z,11.14
2023-05-11T05:17:14.941Z,11.13
2023-05-11T05:19:44.331Z,11.17
2023-05-11T05:22:13.894Z,11.17
2023-05-11T05:24:45.056Z,11.18
2023-05-11T05:27:14.488Z,11.22
2023-05-11T05:29:44.539Z,11.31
2023-05-11T05:32:14.188Z,11.41
2023-05-11T05:34:47.046Z,11.50
2023-05-11T05:37:18.021Z,11.47
2023-05-11T05:39:48.847Z,11.68
2023-05-11T05:42:18.472Z,11.79
2023-05-11T05:44:48.169Z,11.85
2023-05-11T05:47:17.492Z,11.73
2023-05-11T05:49:46.787Z,11.79
2023-05-11T05:52:16.921Z,11.75
2023-05-11T05:54:46.888Z,11.73
2023-05-11T05:57:16.460Z,11.69
2023-05-11T05:59:46.836Z,11.78
2023-05-11T06:04:48.329Z,11.76
2023-05-11T06:07:17.786Z,11.70
2023-05-11T06:09:47.111Z,11.70
2023-05-11T06:12:16.387Z,11.82
2023-05-11T06:14:47.678Z,11.77
2023-05-11T06:17:17.155Z,11.74
2023-05-11T06:19:47.254Z,11.79
2023-05-11T06:22:16.818Z,11.82
2023-05-11T06:24:46.295Z,11.87
2023-05-11T06:27:18.258Z,11.91
2023-05-11T06:29:47.741Z,11.88
2023-05-11T06:32:17.292Z,11.93
2023-05-11T06:34:47.329Z,11.94
2023-05-11T06:37:18.407Z,11.87
2023-05-11T06:39:49.488Z,11.81
2023-05-11T06:42:18.853Z,11.80
2023-05-11T06:44:50.066Z,11.92
2023-05-11T06:47:19.460Z,11.87
2023-05-11T06:49:50.096Z,11.92
2023-05-11T06:52:19.771Z,11.67
2023-05-11T06:54:49.281Z,11.69
2023-05-11T06:57:19.006Z,11.67
2023-05-11T06:59:48.498Z,11.69
2023-05-11T07:02:17.984Z,11.75
2023-05-11T07:04:47.404Z,11.73
2023-05-11T07:07:16.927Z,11.74
2023-05-11T07:09:46.211Z,11.62
2023-05-11T07:12:16.029Z,11.71
2023-05-11T07:14:45.426Z,11.67
2023-05-11T07:17:15.017Z,11.64
2023-05-11T07:19:44.396Z,11.69
2023-05-11T07:22:15.122Z,11.67
2023-05-11T07:24:44.645Z,11.75
2023-05-11T07:27:15.040Z,11.81
2023-05-11T07:29:44.404Z,11.79
2023-05-11T07:32:13.912Z,11.70
2023-05-11T07:34:43.315Z,11.82
2023-05-11T07:37:12.666Z,11.76
2023-05-11T07:39:42.046Z,11.73
2023-05-11T07:42:11.336Z,11.70
2023-05-11T07:44:40.889Z,11.67
2023-05-11T07:47:10.835Z,11.70
2023-05-11T07:49:44.031Z,11.72
2023-05-11T07:52:12.730Z,11.76
2023-05-11T07:54:42.201Z,11.81
2023-05-11T07:57:14.099Z,11.80
2023-05-11T07:59:43.579Z,11.65
2023-05-11T08:02:13.559Z,11.72
2023-05-11T08:04:44.162Z,11.83
2023-05-11T08:07:13.818Z,11.91
2023-05-11T08:09:43.247Z,11.89
2023-05-11T08:12:12.604Z,11.94
2023-05-11T08:14:43.216Z,11.87
2023-05-11T08:17:12.542Z,12.00
2023-05-11T08:19:42.122Z,12.13
2023-05-11T08:22:11.454Z,12.09
2023-05-11T08:24:40.741Z,12.18
2023-05-11T08:27:10.067Z,12.18
2023-05-11T08:29:39.374Z,12.12
2023-05-11T08:32:08.856Z,12.18
2023-05-11T08:34:38.277Z,12.20
2023-05-11T08:37:07.739Z,12.29
2023-05-11T08:39:46.550Z,12.43
2023-05-11T08:42:09.014Z,12.55
2023-05-11T08:44:39.562Z,12.49
2023-05-11T08:47:21.114Z,12.54
2023-05-11T08:49:40.103Z,12.47
2023-05-11T08:52:09.991Z,12.34
2023-05-11T08:54:39.661Z,12.40
2023-05-11T08:57:09.147Z,12.66
2023-05-11T08:59:38.878Z,12.84
2023-05-11T09:02:08.544Z,12.83
2023-05-11T09:04:38.003Z,13.00
2023-05-11T09:07:07.700Z,13.36
2023-05-11T09:09:37.281Z,13.78
2023-05-11T09:12:07.296Z,13.87
2023-05-11T09:14:36.700Z,13.90
2023-05-11T09:17:06.486Z,13.89
2023-05-11T09:19:35.763Z,13.83
2023-05-11T09:22:07.366Z,14.04
2023-05-11T09:24:36.841Z,14.43
2023-05-11T09:27:10.293Z,14.67
2023-05-11T09:29:39.693Z,14.61
2023-05-11T09:32:09.176Z,14.71
2023-05-11T09:34:43.362Z,15.56
2023-05-11T09:37:12.652Z,15.35
2023-05-11T09:39:59.204Z,14.99
2023-05-11T09:42:20.234Z,14.94
2023-05-11T09:44:49.768Z,14.89
2023-05-11T09:47:22.659Z,15.24
2023-05-11T09:49:52.158Z,15.14
2023-05-11T09:52:21.604Z,15.43
2023-05-11T09:54:52.525Z,15.65
2023-05-11T09:57:29.874Z,15.38
2023-05-11T10:00:00.861Z,15.83
2023-05-11T10:02:31.673Z,17.62
2023-05-11T10:05:02.851Z,16.98
2023-05-11T10:07:36.308Z,16.98
2023-05-11T10:10:07.537Z,16.45
2023-05-11T10:12:40.884Z,16.86
2023-05-11T10:15:11.822Z,16.94
2023-05-11T10:17:43.647Z,16.89
2023-05-11T10:20:14.042Z,16.89
2023-05-11T10:22:43.601Z,16.90
2023-05-11T10:25:13.458Z,16.91
2023-05-11T10:27:43.217Z,16.81
2023-05-11T10:30:14.636Z,16.19
2023-05-11T10:32:49.724Z,16.59
2023-05-11T10:35:19.106Z,16.86
2023-05-11T10:37:49.139Z,16.02
2023-05-11T10:40:18.819Z,16.17
2023-05-11T10:42:57.948Z,17.95
2023-05-11T10:45:48.083Z,18.40
2023-05-11T10:48:41.913Z,19.94
2023-05-11T10:51:35.837Z,19.40
2023-05-11T10:54:38.808Z,18.18
2023-05-11T10:57:11.305Z,20.11
2023-05-11T10:59:58.728Z,18.19
2023-05-11T11:02:31.283Z,17.56
2023-05-11T11:05:02.741Z,17.28
2023-05-11T11:07:33.757Z,17.87
2023-05-11T11:10:05.609Z,17.63
2023-05-11T11:12:37.475Z,17.71
2023-05-11T11:15:08.841Z,19.39
2023-05-11T11:17:38.205Z,19.53
2023-05-11T11:20:08.505Z,18.07
2023-05-11T11:22:41.906Z,17.67
2023-05-11T11:25:12.413Z,16.73
2023-05-11T11:27:47.449Z,16.74
2023-05-11T11:30:18.858Z,16.94
2023-05-11T11:32:50.778Z,17.61
2023-05-11T11:35:43.054Z,17.41
2023-05-11T11:38:20.194Z,17.78
2023-05-11T11:40:53.271Z,18.46
2023-05-11T11:43:25.038Z,20.35
2023-05-11T11:46:01.979Z,20.57
2023-05-11T11:48:40.870Z,20.41
2023-05-11T11:51:14.277Z,20.12
2023-05-11T11:53:47.046Z,19.34
2023-05-11T11:56:21.127Z,18.41
2023-05-11T11:58:53.820Z,18.41
2023-05-11T12:01:26.894Z,17.64
2023-05-11T12:04:02.401Z,17.55
2023-05-11T12:06:39.853Z,17.61
2023-05-11T12:09:09.739Z,17.33
2023-05-11T12:11:39.668Z,17.40
2023-05-11T12:14:10.975Z,17.39
2023-05-11T12:16:40.798Z,17.70
2023-05-11T12:19:10.157Z,17.54
2023-05-11T12:21:39.550Z,17.29
2023-05-11T12:24:09.019Z,17.10
2023-05-11T12:26:38.299Z,16.84
2023-05-11T12:29:09.892Z,16.38
2023-05-11T12:31:40.123Z,16.34
2023-05-11T12:34:17.065Z,16.36
2023-05-11T12:36:47.268Z,16.44
2023-05-11T12:39:24.395Z,16.64
2023-05-11T12:41:55.380Z,16.46
2023-05-11T12:44:26.385Z,16.31
2023-05-11T12:46:56.075Z,16.67
2023-05-11T12:49:27.639Z,17.06
2023-05-11T12:52:11.612Z,17.21
2023-05-11T12:54:43.524Z,17.66
2023-05-11T12:57:27.756Z,17.95
2023-05-11T13:00:14.872Z,17.44
2023-05-11T13:02:55.674Z,16.82
2023-05-11T13:05:30.013Z,16.99
2023-05-11T13:08:04.683Z,16.88
2023-05-11T13:10:33.989Z,16.68
2023-05-11T13:13:03.809Z,16.59
2023-05-11T13:15:33.717Z,16.54
2023-05-11T13:18:03.977Z,16.38
2023-05-11T13:20:36.531Z,16.32
2023-05-11T13:23:06.294Z,16.48
2023-05-11T13:25:50.066Z,16.54
2023-05-11T13:28:21.969Z,16.67
2023-05-11T13:30:52.464Z,16.28
2023-05-11T13:33:22.053Z,16.91
2023-05-11T13:35:51.347Z,17.17
2023-05-11T13:38:20.785Z,16.52
2023-05-11T13:40:50.104Z,17.18
2023-05-11T13:43:19.748Z,17.28
2023-05-11T13:45:49.082Z,17.13
2023-05-11T13:48:18.379Z,17.19
2023-05-11T13:50:47.731Z,17.13
2023-05-11T13:53:17.505Z,16.89
2023-05-11T13:55:46.774Z,16.33
2023-05-11T13:58:17.481Z,16.68
2023-05-11T14:00:56.367Z,17.23
2023-05-11T14:03:18.494Z,17.29
2023-05-11T14:05:51.478Z,17.12
2023-05-11T14:08:20.740Z,17.19
2023-05-11T14:10:50.112Z,17.35
2023-05-11T14:13:19.759Z,17.30
2023-05-11T14:15:49.608Z,17.29
2023-05-11T14:18:19.187Z,17.47
2023-05-11T14:20:48.980Z,17.86
2023-05-11T14:23:18.261Z,17.35
2023-05-11T14:25:47.545Z,17.27
2023-05-11T14:28:17.603Z,17.48
2023-05-11T14:30:47.047Z,17.72
2023-05-11T14:33:16.325Z,17.35
2023-05-11T14:35:45.694Z,17.56
2023-05-11T14:38:16.087Z,17.61
2023-05-11T14:40:45.512Z,17.16
2023-05-11T14:43:15.118Z,16.75
2023-05-11T14:45:44.669Z,16.37
2023-05-11T14:48:14.029Z,15.97
2023-05-11T14:50:43.762Z,15.62
2023-05-11T14:53:13.646Z,15.23
2023-05-11T14:55:43.268Z,15.33
2023-05-11T14:58:12.555Z,15.22
2023-05-11T15:00:43.993Z,15.09
2023-05-11T15:03:13.382Z,15.37
2023-05-11T15:05:43.063Z,15.12
2023-05-11T15:08:25.768Z,15.01
2023-05-11T15:10:43.509Z,15.14
2023-05-11T15:13:14.470Z,15.23
2023-05-11T15:15:43.834Z,15.19
2023-05-11T15:18:14.307Z,15.26
2023-05-11T15:20:44.727Z,15.32
2023-05-11T15:23:15.907Z,15.51
2023-05-11T15:25:45.608Z,15.50
2023-05-11T15:28:15.354Z,15.51
2023-05-11T15:30:44.627Z,15.77
2023-05-11T15:33:15.689Z,15.93
2023-05-11T15:35:45.267Z,15.67
2023-05-11T15:38:14.641Z,15.57
2023-05-11T15:40:43.988Z,15.44
2023-05-11T15:43:13.298Z,15.34
2023-05-11T15:45:42.834Z,15.14
2023-05-11T15:48:12.410Z,15.05
2023-05-11T15:50:41.911Z,15.01
2023-05-11T15:53:11.195Z,15.03
2023-05-11T15:55:42.427Z,14.99
2023-05-11T15:58:11.783Z,14.96
2023-05-11T16:00:41.631Z,14.67
2023-05-11T16:03:11.217Z,14.55
2023-05-11T16:05:40.787Z,14.59
2023-05-11T16:08:10.653Z,14.60
2023-05-11T16:10:40.036Z,14.44
2023-05-11T16:13:09.778Z,14.56
2023-05-11T16:15:39.114Z,14.33
2023-05-11T16:18:08.503Z,14.17
2023-05-11T16:20:38.403Z,14.16
2023-05-11T16:23:07.669Z,14.17
2023-05-11T16:25:37.275Z,14.16
2023-05-11T16:28:06.723Z,14.18
2023-05-11T16:30:35.990Z,14.11
2023-05-11T16:33:05.550Z,14.02
2023-05-11T16:35:35.133Z,14.07
2023-05-11T16:38:05.863Z,14.01
2023-05-11T16:40:35.218Z,14.00
2023-05-11T16:43:04.847Z,13.96
2023-05-11T16:45:34.099Z,13.94
2023-05-11T16:48:03.853Z,13.81
2023-05-11T16:50:33.306Z,13.79
2023-05-11T16:53:03.411Z,13.81
2023-05-11T16:55:32.708Z,13.80
2023-05-11T16:58:02.318Z,13.80
2023-05-11T17:00:34.212Z,13.59
2023-05-11T17:03:03.120Z,13.58
2023-05-11T17:05:32.647Z,13.65
2023-05-11T17:08:02.969Z,13.61
2023-05-11T17:10:32.587Z,13.61
2023-05-11T17:13:02.219Z,13.49
2023-05-11T17:15:32.438Z,13.55
2023-05-11T17:18:01.991Z,13.51
2023-05-11T17:20:32.181Z,13.46
2023-05-11T17:23:01.678Z,13.47
2023-05-11T17:25:31.813Z,13.47
2023-05-11T17:28:01.579Z,13.47
2023-05-11T17:30:47.317Z,13.44
2023-05-11T17:33:02.738Z,13.36
2023-05-11T17:35:33.247Z,13.32
2023-05-11T17:38:03.207Z,13.35
2023-05-11T17:40:32.499Z,13.40
2023-05-11T17:43:02.368Z,13.35
2023-05-11T17:45:31.746Z,13.42
2023-05-11T17:48:01.458Z,13.31
2023-05-11T17:50:32.503Z,13.31
2023-05-11T17:53:01.979Z,13.29
2023-05-11T17:55:31.305Z,13.32
2023-05-11T17:58:00.839Z,13.24
2023-05-11T18:00:30.225Z,13.23
2023-05-11T18:03:00.238Z,13.21
2023-05-11T18:05:40.236Z,13.23
2023-05-11T18:08:02.572Z,13.29
2023-05-11T18:10:32.133Z,13.25
2023-05-11T18:13:02.100Z,13.25
2023-05-11T18:15:31.451Z,13.28
2023-05-11T18:18:02.341Z,13.29
2023-05-11T18:20:32.206Z,13.34
2023-05-11T18:23:01.791Z,13.35
2023-05-11T18:25:32.060Z,13.31
2023-05-11T18:28:02.613Z,13.32
2023-05-11T18:30:33.399Z,13.33
2023-05-11T18:33:03.162Z,13.31
2023-05-11T18:35:32.912Z,13.26
2023-05-11T18:38:04.344Z,13.23
2023-05-11T18:40:33.945Z,13.20
2023-05-11T18:43:04.027Z,13.26
2023-05-11T18:45:35.109Z,13.19
2023-05-11T18:48:05.263Z,13.18
2023-05-11T18:50:34.998Z,13.10
2023-05-11T18:53:04.944Z,13.09
2023-05-11T18:55:45.024Z,13.06
2023-05-11T18:58:05.640Z,12.99
2023-05-11T19:00:37.039Z,12.93
2023-05-11T19:03:07.085Z,12.94
2023-05-11T19:05:36.768Z,12.87
2023-05-11T19:08:06.283Z,12.87
2023-05-11T19:10:38.741Z,12.84
2023-05-11T19:13:08.028Z,12.84
2023-05-11T19:15:37.343Z,12.78
2023-05-11T19:18:09.540Z,12.79
2023-05-11T19:20:39.551Z,12.72
2023-05-11T19:23:09.193Z,12.68
2023-05-11T19:25:39.118Z,12.65
2023-05-11T19:28:08.645Z,12.62
2023-05-11T19:30:38.472Z,12.65
2023-05-11T19:33:08.182Z,12.60
2023-05-11T19:35:39.435Z,12.62
2023-05-11T19:38:09.385Z,12.60
2023-05-11T19:40:45.920Z,12.58
2023-05-11T19:43:10.921Z,12.59
2023-05-11T19:45:41.846Z,12.62
2023-05-11T19:48:12.680Z,12.62
2023-05-11T19:50:42.440Z,12.56
2023-05-11T19:53:12.357Z,12.60
2023-05-11T19:55:42.164Z,12.60
2023-05-11T19:58:12.117Z,12.62
2023-05-11T20:00:41.606Z,12.59
2023-05-11T20:03:11.352Z,12.62
2023-05-11T20:05:40.802Z,12.63
2023-05-11T20:08:10.803Z,12.66
2023-05-11T20:10:40.161Z,12.68
2023-05-11T20:13:09.962Z,12.69
2023-05-11T20:15:39.430Z,12.62
2023-05-11T20:18:09.555Z,12.65
2023-05-11T20:20:39.216Z,12.60
2023-05-11T20:23:08.856Z,12.62
2023-05-11T20:25:39.772Z,12.59
2023-05-11T20:28:09.412Z,12.61
2023-05-11T20:30:39.056Z,12.58
2023-05-11T20:35:40.148Z,12.59
2023-05-11T20:38:10.701Z,12.59
2023-05-11T20:40:41.316Z,12.61
2023-05-11T20:43:13.048Z,12.61
2023-05-11T20:45:42.029Z,12.62
2023-05-11T20:48:12.484Z,12.59
2023-05-11T20:50:41.832Z,12.64
2023-05-11T20:53:11.556Z,12.62
2023-05-11T20:55:41.158Z,12.64
2023-05-11T20:58:11.179Z,12.59
2023-05-11T21:00:41.290Z,12.62
2023-05-11T21:03:10.862Z,12.62
2023-05-11T21:05:40.804Z,12.62
2023-05-11T21:08:10.266Z,12.65
2023-05-11T21:10:39.757Z,12.58
2023-05-11T21:13:09.150Z,12.66
2023-05-11T21:15:38.615Z,12.57
2023-05-11T21:18:08.100Z,12.53
2023-05-11T21:20:37.791Z,12.50
2023-05-11T21:23:09.220Z,12.49
2023-05-11T21:25:38.688Z,12.47
2023-05-11T21:28:07.987Z,12.46
2023-05-11T21:30:38.136Z,12.46
2023-05-11T21:33:08.145Z,12.46
2023-05-11T21:35:37.923Z,12.51
2023-05-11T21:38:07.274Z,12.50
2023-05-11T21:40:37.191Z,12.49
2023-05-11T21:43:08.647Z,12.47
2023-05-11T21:45:37.745Z,12.45
2023-05-11T21:48:07.561Z,12.44
2023-05-11T21:50:38.209Z,12.48
2023-05-11T21:53:07.826Z,12.41
2023-05-11T21:55:37.367Z,12.42
2023-05-11T21:58:07.237Z,12.41
2023-05-11T22:00:37.403Z,12.37
2023-05-11T22:03:07.077Z,12.36
2023-05-11T22:05:36.828Z,12.38
2023-05-11T22:08:14.948Z,12.36
2023-05-11T22:10:37.655Z,12.34
2023-05-11T22:13:07.349Z,12.34
2023-05-11T22:15:37.383Z,12.29
2023-05-11T22:18:07.193Z,12.24
2023-05-11T22:20:36.527Z,12.16
2023-05-11T22:23:06.121Z,12.22
2023-05-11T22:25:35.508Z,12.20
2023-05-11T22:28:05.230Z,12.17
2023-05-11T22:30:34.532Z,12.13
2023-05-11T22:33:04.090Z,12.12
2023-05-11T22:35:33.715Z,12.11
2023-05-11T22:38:04.360Z,12.13
2023-05-11T22:40:33.691Z,12.11
2023-05-11T22:43:03.730Z,12.07
2023-05-11T22:45:33.153Z,12.06
2023-05-11T22:48:02.695Z,12.07
2023-05-11T22:50:32.290Z,12.05
2023-05-11T22:53:02.027Z,12.05
2023-05-11T22:55:32.053Z,12.06
2023-05-11T22:58:01.347Z,12.09
2023-05-11T23:00:31.322Z,12.00
2023-05-11T23:03:00.707Z,11.95
2023-05-11T23:05:30.334Z,11.97
2023-05-11T23:08:00.045Z,11.94
2023-05-11T23:10:29.570Z,11.94
2023-05-11T23:12:59.013Z,11.93
2023-05-11T23:15:28.563Z,11.87
2023-05-11T23:17:57.925Z,11.89
2023-05-11T23:20:27.697Z,11.83
2023-05-11T23:22:57.008Z,11.80
2023-05-11T23:25:26.772Z,11.82
2023-05-11T23:27:56.176Z,11.79
2023-05-11T23:30:26.387Z,11.76
2023-05-11T23:32:56.003Z,11.74
2023-05-11T23:35:25.626Z,11.70
2023-05-11T23:37:54.931Z,11.66
2023-05-11T23:40:26.172Z,11.57
2023-05-11T23:42:56.298Z,11.51
2023-05-11T23:45:27.648Z,11.44
2023-05-11T23:47:57.084Z,11.41
2023-05-11T23:50:26.839Z,11.44
2023-05-11T23:52:57.702Z,11.43
2023-05-11T23:55:27.082Z,11.40
2023-05-11T23:57:58.743Z,11.37
